Time;durP1;ratioP1;P1;durP2;ratioP2;P2;SDS_P1;SDS_P2;PMS_P1;PMS_P2;Temp;Humidity;BMP_temperature;BMP_pressure;BME280_temperature;BME280_humidity;BME280_pressure;Samples;Min_cycle;Max_cycle;Signal;HPM_P1;HPM_P2
2022/04/30 00:01:21;;;;;;;;;;;8.80;99.90;;;;;;5061745;28;20391;-71
2022/04/30 00:03:53;;;;;;;;;;;8.90;99.90;;;;;;5051794;28;19928;-70
2022/04/30 00:06:25;;;;;;;;;;;8.80;99.90;;;;;;5060587;28;19924;-70
2022/04/30 00:08:56;;;;;;;;;;;8.80;99.90;;;;;;5043724;28;19931;-70
2022/04/30 00:11:28;;;;;;;;;;;8.80;99.90;;;;;;5052711;28;19935;-70
2022/04/30 00:14:00;;;;;;;;;;;8.80;99.90;;;;;;5062174;28;19931;-70
2022/04/30 00:16:27;;;;;;;;;;;8.80;99.90;;;;;;5059068;28;19967;-70
2022/04/30 00:18:59;;;;;;;;;;;8.80;99.90;;;;;;5066118;28;20345;-70
2022/04/30 00:21:30;;;;;;;;;;;8.80;99.90;;;;;;5056657;28;19925;-70
2022/04/30 00:24:02;;;;;;;;;;;8.80;99.90;;;;;;5037909;28;19947;-70
2022/04/30 00:26:34;;;;;;;;;;;8.70;99.90;;;;;;5041831;28;19925;-70
2022/04/30 00:29:05;;;;;;;;;;;8.70;99.90;;;;;;5066524;28;20385;-70
2022/04/30 00:31:37;;;;;;;;;;;8.70;99.90;;;;;;5057795;28;19932;-71
2022/04/30 00:34:05;;;;;;;;;;;8.70;99.90;;;;;;5037053;28;19929;-70
2022/04/30 00:36:36;;;;;;;;;;;8.70;99.90;;;;;;5057473;28;19924;-70
2022/04/30 00:39:08;;;;;;;;;;;8.70;99.90;;;;;;5062861;28;20295;-70
2022/04/30 00:41:44;;;;;;;;;;;8.70;99.90;;;;;;5042012;28;19936;-70
2022/04/30 00:44:19;;;;;;;;;;;8.60;99.90;;;;;;5056453;28;20020;-71
2022/04/30 00:46:46;;;;;;;;;;;8.60;99.90;;;;;;5030801;28;19931;-71
2022/04/30 00:49:18;;;;;;;;;;;8.50;99.90;;;;;;5065711;28;20280;-70
2022/04/30 00:51:50;;;;;;;;;;;8.50;99.90;;;;;;5061455;28;20039;-70
2022/04/30 00:54:23;;;;;;;;;;;8.40;99.90;;;;;;5058686;28;20007;-71
2022/04/30 00:56:58;;;;;;;;;;;8.30;99.90;;;;;;5060371;28;19944;-71
2022/04/30 00:59:33;;;;;;;;;;;8.20;99.90;;;;;;5065228;28;19928;-70
2022/04/30 01:02:04;;;;;;;;;;;8.20;99.90;;;;;;5031274;28;19929;-70
2022/04/30 01:04:48;;;;;;;;;;;8.10;99.90;;;;;;5060839;28;19928;-71
2022/04/30 01:07:20;;;;;;;;;;;8.10;99.90;;;;;;5057563;28;19936;-70
2022/04/30 01:09:52;;;;;;;;;;;8.00;99.90;;;;;;5040575;28;19935;-70
2022/04/30 01:12:25;;;;;;;;;;;8.00;99.90;;;;;;5029207;28;19932;-70
2022/04/30 01:14:57;;;;;;;;;;;8.00;99.90;;;;;;5045184;28;19925;-71
2022/04/30 01:17:28;;;;;;;;;;;8.00;99.90;;;;;;5040895;28;19928;-70
2022/04/30 01:20:00;;;;;;;;;;;8.00;99.90;;;;;;5060836;28;19932;-71
2022/04/30 01:22:52;;;;;;;;;;;8.00;99.90;;;;;;5042657;28;19940;-71
2022/04/30 01:25:23;;;;;;;;;;;7.90;99.90;;;;;;5057491;28;19928;-71
2022/04/30 01:27:56;;;;;;;;;;;8.00;99.90;;;;;;5023214;28;19931;-70
2022/04/30 01:30:28;;;;;;;;;;;7.90;99.90;;;;;;5062639;28;19933;-71
2022/04/30 01:38:40;;;;;;;;;;;7.80;99.90;;;;;;5055769;28;19947;-70
2022/04/30 01:41:11;;;;;;;;;;;7.80;99.90;;;;;;5051277;28;19925;-70
2022/04/30 01:43:43;;;;;;;;;;;7.70;99.90;;;;;;5056354;28;19925;-71
2022/04/30 01:46:15;;;;;;;;;;;7.70;99.90;;;;;;5054785;28;20482;-70
2022/04/30 01:48:47;;;;;;;;;;;7.70;99.90;;;;;;5045408;28;19931;-70
2022/04/30 01:51:14;;;;;;;;;;;7.70;99.90;;;;;;5056292;28;19925;-70
2022/04/30 01:53:46;;;;;;;;;;;7.70;99.90;;;;;;5053166;28;20403;-72
2022/04/30 01:56:19;;;;;;;;;;;7.70;99.90;;;;;;5039616;28;19924;-70
2022/04/30 01:59:01;;;;;;;;;;;7.60;99.90;;;;;;5019294;28;19935;-71
2022/04/30 02:01:34;;;;;;;;;;;7.60;99.90;;;;;;5039644;28;19929;-70
2022/04/30 02:04:07;;;;;;;;;;;7.50;99.90;;;;;;5044723;28;19932;-70
2022/04/30 02:06:39;;;;;;;;;;;7.50;99.90;;;;;;5059374;28;19925;-70
2022/04/30 02:09:10;;;;;;;;;;;7.50;99.90;;;;;;5057759;28;20317;-71
2022/04/30 02:11:42;;;;;;;;;;;7.50;99.90;;;;;;5040188;28;19932;-70
2022/04/30 02:14:14;;;;;;;;;;;7.50;99.90;;;;;;5048495;28;19928;-70
2022/04/30 02:16:46;;;;;;;;;;;7.40;99.90;;;;;;5056673;28;20384;-71
2022/04/30 02:19:20;;;;;;;;;;;7.40;99.90;;;;;;5060299;28;20461;-71
2022/04/30 02:21:51;;;;;;;;;;;7.40;99.90;;;;;;5057705;28;20324;-71
2022/04/30 02:24:27;;;;;;;;;;;7.40;99.90;;;;;;5030579;28;20340;-70
2022/04/30 02:26:59;;;;;;;;;;;7.40;99.90;;;;;;5039348;28;19928;-70
2022/04/30 02:29:30;;;;;;;;;;;7.40;99.90;;;;;;5061811;28;19925;-71
2022/04/30 02:32:02;;;;;;;;;;;7.40;99.90;;;;;;5042097;28;20300;-71
2022/04/30 02:34:35;;;;;;;;;;;7.40;99.90;;;;;;5026306;28;19928;-71
2022/04/30 02:37:07;;;;;;;;;;;7.40;99.90;;;;;;5064543;28;19924;-70
2022/04/30 02:39:39;;;;;;;;;;;7.40;99.90;;;;;;5064543;28;19928;-70
2022/04/30 02:42:11;;;;;;;;;;;7.40;99.90;;;;;;5051764;28;19935;-71
2022/04/30 02:44:38;;;;;;;;;;;7.50;99.90;;;;;;5057991;28;19936;-70
2022/04/30 02:47:06;;;;;;;;;;;7.50;99.90;;;;;;5057329;28;20401;-71
2022/04/30 02:49:38;;;;;;;;;;;7.50;99.90;;;;;;5034826;28;20293;-71
2022/04/30 02:52:09;;;;;;;;;;;7.50;99.90;;;;;;5052011;28;19933;-71
2022/04/30 02:54:41;;;;;;;;;;;7.60;99.90;;;;;;5030302;28;19925;-70
2022/04/30 02:57:12;;;;;;;;;;;7.60;99.90;;;;;;5060007;28;19937;-71
2022/04/30 02:59:53;;;;;;;;;;;7.60;99.90;;;;;;5057146;28;19932;-71
2022/04/30 03:02:45;;;;;;;;;;;7.60;99.90;;;;;;5056647;28;19928;-71
2022/04/30 03:05:18;;;;;;;;;;;7.50;99.90;;;;;;5059689;28;19931;-71
2022/04/30 03:07:50;;;;;;;;;;;7.50;99.90;;;;;;5063538;28;20323;-70
2022/04/30 03:10:22;;;;;;;;;;;7.40;99.90;;;;;;5062368;28;19925;-70
2022/04/30 03:12:53;;;;;;;;;;;7.30;99.90;;;;;;5049328;28;19936;-71
2022/04/30 03:15:27;;;;;;;;;;;7.20;99.90;;;;;;5055800;28;19925;-70
2022/04/30 03:23:40;;;;;;;;;;;7.20;99.90;;;;;;5048719;28;19929;-72
2022/04/30 03:26:12;;;;;;;;;;;7.30;99.90;;;;;;5058461;28;19936;-71
2022/04/30 03:28:43;;;;;;;;;;;7.30;99.90;;;;;;5045213;28;19933;-71
2022/04/30 03:31:16;;;;;;;;;;;7.30;99.90;;;;;;5046561;28;19924;-72
2022/04/30 03:33:48;;;;;;;;;;;7.30;99.90;;;;;;5055694;28;19931;-71
2022/04/30 03:36:20;;;;;;;;;;;7.40;99.90;;;;;;5038435;28;19925;-71
2022/04/30 03:38:52;;;;;;;;;;;7.40;99.90;;;;;;5043485;28;20405;-71
2022/04/30 03:41:23;;;;;;;;;;;7.50;99.90;;;;;;5041671;28;20379;-71
2022/04/30 03:43:55;;;;;;;;;;;7.50;99.90;;;;;;5040257;28;20273;-71
2022/04/30 03:46:27;;;;;;;;;;;7.50;99.90;;;;;;5050514;28;19924;-71
2022/04/30 03:49:00;;;;;;;;;;;7.50;99.90;;;;;;5037260;28;20421;-72
2022/04/30 03:51:31;;;;;;;;;;;7.50;99.90;;;;;;5055957;28;19929;-71
2022/04/30 03:54:03;;;;;;;;;;;7.50;99.90;;;;;;5033411;28;20011;-71
2022/04/30 03:56:35;;;;;;;;;;;7.50;99.90;;;;;;5063047;28;19935;-72
2022/04/30 03:59:08;;;;;;;;;;;7.50;99.90;;;;;;5059842;28;20228;-73
2022/04/30 04:01:40;;;;;;;;;;;7.50;99.90;;;;;;5058053;28;19933;-71
2022/04/30 04:04:07;;;;;;;;;;;7.50;99.90;;;;;;5055339;28;19929;-70
2022/04/30 04:06:38;;;;;;;;;;;7.50;99.90;;;;;;5059561;28;19952;-71
2022/04/30 04:09:10;;;;;;;;;;;7.40;99.90;;;;;;5040855;28;20412;-73
2022/04/30 04:11:36;;;;;;;;;;;7.40;99.90;;;;;;5054189;28;19925;-72
2022/04/30 04:19:43;;;;;;;;;;;7.40;99.90;;;;;;5060194;28;19924;-70
2022/04/30 04:22:15;;;;;;;;;;;7.30;99.90;;;;;;5031296;28;20333;-71
2022/04/30 04:27:37;;;;;;;;;;;7.40;99.90;;;;;;5059266;28;19971;-71
2022/04/30 04:30:09;;;;;;;;;;;7.40;99.90;;;;;;5027259;28;20016;-72
2022/04/30 04:32:40;;;;;;;;;;;7.50;99.90;;;;;;5044563;28;19932;-72
2022/04/30 04:35:14;;;;;;;;;;;7.50;99.90;;;;;;5056827;28;19932;-72
2022/04/30 04:37:45;;;;;;;;;;;7.50;99.90;;;;;;5061352;28;20015;-71
2022/04/30 04:40:17;;;;;;;;;;;7.60;99.90;;;;;;5063957;28;19924;-71
2022/04/30 04:42:49;;;;;;;;;;;7.60;99.90;;;;;;5033451;28;19940;-71
2022/04/30 04:45:22;;;;;;;;;;;7.60;99.90;;;;;;5039831;28;19924;-71
2022/04/30 04:47:54;;;;;;;;;;;7.60;99.90;;;;;;5062509;28;19925;-70
2022/04/30 04:50:25;;;;;;;;;;;7.80;99.90;;;;;;5061473;28;20023;-72
2022/04/30 04:52:57;;;;;;;;;;;7.70;99.90;;;;;;5037712;28;19925;-71
2022/04/30 04:55:24;;;;;;;;;;;7.60;99.90;;;;;;5057156;28;19932;-72
2022/04/30 04:57:55;;;;;;;;;;;7.60;99.90;;;;;;5066435;28;19925;-72
2022/04/30 05:00:27;;;;;;;;;;;7.60;99.90;;;;;;5034976;28;20019;-70
2022/04/30 05:02:59;;;;;;;;;;;7.70;99.90;;;;;;5048726;28;20440;-71
2022/04/30 05:05:30;;;;;;;;;;;7.70;99.90;;;;;;5061501;28;20307;-71
2022/04/30 05:08:02;;;;;;;;;;;7.80;99.90;;;;;;5039225;28;19924;-71
2022/04/30 05:10:35;;;;;;;;;;;7.90;99.90;;;;;;5051663;28;20027;-71
2022/04/30 05:13:06;;;;;;;;;;;8.00;99.90;;;;;;5030725;28;19925;-71
2022/04/30 05:15:39;;;;;;;;;;;8.00;99.90;;;;;;5079355;22;20380;-75
2022/04/30 05:18:10;;;;;;;;;;;8.10;99.90;;;;;;5071917;28;20302;-74
2022/04/30 05:20:42;;;;;;;;;;;8.10;99.90;;;;;;5059945;28;20019;-74
2022/04/30 05:23:13;;;;;;;;;;;8.20;99.90;;;;;;5071427;28;19932;-75
2022/04/30 05:25:40;;;;;;;;;;;8.30;99.90;;;;;;5033868;28;19928;-74
2022/04/30 05:28:12;;;;;;;;;;;8.30;99.90;;;;;;5040794;28;19925;-75
2022/04/30 05:30:43;;;;;;;;;;;8.20;99.90;;;;;;5054848;28;20023;-74
2022/04/30 05:33:15;;;;;;;;;;;8.20;99.90;;;;;;5067271;28;20382;-74
2022/04/30 05:35:42;;;;;;;;;;;8.10;99.90;;;;;;5044517;28;19924;-75
2022/04/30 05:38:13;;;;;;;;;;;8.10;99.90;;;;;;5052203;28;19935;-74
2022/04/30 05:40:45;;;;;;;;;;;8.20;99.90;;;;;;5048010;28;19932;-74
2022/04/30 05:43:17;;;;;;;;;;;8.20;99.90;;;;;;5071654;28;19924;-75
2022/04/30 05:45:48;;;;;;;;;;;8.20;99.90;;;;;;5078382;28;19924;-75
2022/04/30 05:48:20;;;;;;;;;;;8.20;99.90;;;;;;5064413;28;20018;-76
2022/04/30 05:50:52;;;;;;;;;;;8.20;99.90;;;;;;5056283;28;20383;-75
2022/04/30 05:53:23;;;;;;;;;;;8.20;99.90;;;;;;5035852;28;20460;-74
2022/04/30 05:55:55;;;;;;;;;;;8.20;99.90;;;;;;5063972;28;20303;-74
2022/04/30 05:58:27;;;;;;;;;;;8.20;99.90;;;;;;5040089;28;19931;-75
2022/04/30 06:00:58;;;;;;;;;;;8.20;99.90;;;;;;5060093;28;19925;-76
2022/04/30 06:03:31;;;;;;;;;;;8.20;99.90;;;;;;5064602;28;19924;-75
2022/04/30 06:05:58;;;;;;;;;;;8.20;99.90;;;;;;5038728;28;19951;-73
2022/04/30 06:08:29;;;;;;;;;;;8.20;99.90;;;;;;5071019;28;20019;-73
2022/04/30 06:11:01;;;;;;;;;;;8.20;99.90;;;;;;5055318;28;20019;-73
2022/04/30 06:13:33;;;;;;;;;;;8.30;99.90;;;;;;5058326;28;19924;-73
2022/04/30 06:16:04;;;;;;;;;;;8.30;99.90;;;;;;5055734;28;19925;-73
2022/04/30 06:18:36;;;;;;;;;;;8.40;99.90;;;;;;5078554;28;19924;-73
2022/04/30 06:21:08;;;;;;;;;;;8.50;99.90;;;;;;5048935;28;20015;-73
2022/04/30 06:23:39;;;;;;;;;;;8.60;99.90;;;;;;5058214;28;19925;-73
2022/04/30 06:26:11;;;;;;;;;;;8.70;99.90;;;;;;5070435;28;19931;-73
2022/04/30 06:28:44;;;;;;;;;;;8.90;99.90;;;;;;5061188;28;20528;-73
2022/04/30 06:31:16;;;;;;;;;;;9.00;99.90;;;;;;5063423;28;20295;-73
2022/04/30 06:33:48;;;;;;;;;;;9.20;99.90;;;;;;5061745;28;20042;-74
2022/04/30 06:36:15;;;;;;;;;;;9.30;99.90;;;;;;5055052;28;19924;-73
2022/04/30 06:38:46;;;;;;;;;;;9.40;99.90;;;;;;5032206;28;19924;-73
2022/04/30 06:41:19;;;;;;;;;;;9.50;99.90;;;;;;5037038;28;20476;-74
2022/04/30 06:43:51;;;;;;;;;;;9.60;99.90;;;;;;5078364;28;19928;-75
2022/04/30 06:46:17;;;;;;;;;;;9.70;99.90;;;;;;5032662;28;19932;-74
2022/04/30 06:48:44;;;;;;;;;;;9.70;99.90;;;;;;5065676;28;20004;-74
2022/04/30 06:51:16;;;;;;;;;;;9.70;99.90;;;;;;5042554;28;19954;-73
2022/04/30 06:59:23;;;;;;;;;;;9.80;99.90;;;;;;5065969;28;20019;-74
2022/04/30 07:02:03;;;;;;;;;;;9.90;99.90;;;;;;5045361;28;20502;-72
2022/04/30 07:04:35;;;;;;;;;;;9.90;99.90;;;;;;5077370;28;20019;-73
2022/04/30 07:07:02;;;;;;;;;;;9.90;99.90;;;;;;5041523;28;20299;-74
2022/04/30 07:09:34;;;;;;;;;;;9.90;99.90;;;;;;5027432;28;19932;-73
2022/04/30 07:12:07;;;;;;;;;;;9.90;99.90;;;;;;5083588;28;19924;-73
2022/04/30 07:14:40;;;;;;;;;;;10.00;99.90;;;;;;5054541;28;19928;-74
2022/04/30 07:17:13;;;;;;;;;;;10.00;99.90;;;;;;5043559;28;19955;-74
2022/04/30 07:19:40;;;;;;;;;;;10.00;99.90;;;;;;5049166;28;19939;-74
2022/04/30 07:22:11;;;;;;;;;;;10.00;99.90;;;;;;5062823;28;20023;-75
2022/04/30 07:24:38;;;;;;;;;;;10.10;99.90;;;;;;5070258;28;20358;-74
2022/04/30 07:27:05;;;;;;;;;;;10.10;99.90;;;;;;5057181;28;19925;-74
2022/04/30 07:29:32;;;;;;;;;;;10.10;99.90;;;;;;5058279;28;19972;-77
2022/04/30 07:31:59;;;;;;;;;;;10.00;99.90;;;;;;5057913;28;19935;-74
2022/04/30 07:34:30;;;;;;;;;;;10.10;99.90;;;;;;5054716;28;19932;-74
2022/04/30 07:37:03;;;;;;;;;;;10.10;99.90;;;;;;5075676;28;20344;-74
2022/04/30 07:39:34;;;;;;;;;;;10.10;99.90;;;;;;5053174;28;20020;-75
2022/04/30 07:42:06;;;;;;;;;;;10.10;99.90;;;;;;5041693;28;19932;-74
2022/04/30 07:44:39;;;;;;;;;;;10.10;99.90;;;;;;5066887;28;20491;-74
2022/04/30 07:47:05;;;;;;;;;;;10.10;99.90;;;;;;5056187;28;20379;-74
2022/04/30 07:49:37;;;;;;;;;;;10.10;99.90;;;;;;5059268;28;19924;-74
2022/04/30 07:52:09;;;;;;;;;;;10.10;99.90;;;;;;5074429;28;19935;-76
2022/04/30 07:54:42;;;;;;;;;;;10.10;99.90;;;;;;5066492;28;19939;-75
2022/04/30 07:57:09;;;;;;;;;;;10.10;99.90;;;;;;5071794;28;19940;-75
2022/04/30 07:59:41;;;;;;;;;;;10.20;99.90;;;;;;5056595;28;19936;-76
2022/04/30 08:02:13;;;;;;;;;;;10.20;99.90;;;;;;5076948;28;19932;-78
2022/04/30 08:04:39;;;;;;;;;;;10.10;99.90;;;;;;5075481;28;19925;-77
2022/04/30 08:07:11;;;;;;;;;;;10.10;99.90;;;;;;5076244;28;19931;-77
2022/04/30 08:09:38;;;;;;;;;;;10.00;99.90;;;;;;5039182;28;19936;-77
2022/04/30 08:12:05;;;;;;;;;;;10.00;99.90;;;;;;5075386;28;19924;-75
2022/04/30 08:14:37;;;;;;;;;;;10.10;99.90;;;;;;5054724;28;19932;-75
2022/04/30 08:17:03;;;;;;;;;;;10.10;99.90;;;;;;5077309;28;19924;-77
2022/04/30 08:19:35;;;;;;;;;;;10.10;99.90;;;;;;5056246;28;19924;-75
2022/04/30 08:22:07;;;;;;;;;;;10.00;99.90;;;;;;5039096;28;19928;-76
2022/04/30 08:24:33;;;;;;;;;;;10.00;99.90;;;;;;5051202;28;19940;-76
2022/04/30 08:27:05;;;;;;;;;;;9.90;99.90;;;;;;5056360;28;19930;-76
2022/04/30 08:29:37;;;;;;;;;;;9.90;99.90;;;;;;5039495;28;20277;-76
2022/04/30 08:32:08;;;;;;;;;;;9.90;99.90;;;;;;5054894;28;19939;-77
2022/04/30 08:34:40;;;;;;;;;;;9.90;99.90;;;;;;5072019;28;19928;-75
2022/04/30 08:37:07;;;;;;;;;;;9.90;99.90;;;;;;5055353;28;19936;-76
2022/04/30 08:39:39;;;;;;;;;;;9.90;99.90;;;;;;5073734;28;19935;-75
2022/04/30 08:42:12;;;;;;;;;;;9.90;99.90;;;;;;5056636;28;20023;-76
2022/04/30 08:44:39;;;;;;;;;;;9.90;99.90;;;;;;5038831;28;19928;-75
2022/04/30 08:47:09;;;;;;;;;;;9.90;99.90;;;;;;5038094;28;20415;-77
2022/04/30 08:49:37;;;;;;;;;;;10.00;99.90;;;;;;5068484;28;19990;-74
2022/04/30 08:52:15;;;;;;;;;;;10.00;99.90;;;;;;5039147;28;19935;-74
2022/04/30 08:54:42;;;;;;;;;;;9.90;99.90;;;;;;5066565;28;20023;-74
2022/04/30 08:57:08;;;;;;;;;;;9.90;99.90;;;;;;5042675;28;20389;-75
2022/04/30 08:59:40;;;;;;;;;;;10.00;99.90;;;;;;5056808;28;19986;-74
2022/04/30 09:02:08;;;;;;;;;;;10.00;99.90;;;;;;5088139;28;19928;-74
2022/04/30 09:04:44;;;;;;;;;;;10.10;99.90;;;;;;5076717;28;19924;-74
2022/04/30 09:07:15;;;;;;;;;;;10.10;99.90;;;;;;5060982;28;19960;-75
2022/04/30 09:09:43;;;;;;;;;;;10.10;99.90;;;;;;5056576;28;19925;-74
2022/04/30 09:12:11;;;;;;;;;;;10.10;99.90;;;;;;5064092;28;19979;-74
2022/04/30 09:14:40;;;;;;;;;;;10.20;99.90;;;;;;5041197;28;20400;-75
2022/04/30 09:17:13;;;;;;;;;;;10.20;99.90;;;;;;5038333;28;20571;-75
2022/04/30 09:19:52;;;;;;;;;;;10.30;99.90;;;;;;5061283;28;19940;-75
2022/04/30 09:22:28;;;;;;;;;;;10.30;99.90;;;;;;5057358;28;19925;-74
2022/04/30 09:24:55;;;;;;;;;;;10.30;99.90;;;;;;5044364;28;19925;-76
2022/04/30 09:27:23;;;;;;;;;;;10.40;99.90;;;;;;5073906;28;20388;-75
2022/04/30 09:29:54;;;;;;;;;;;10.50;99.90;;;;;;5078108;28;19929;-74
2022/04/30 09:32:26;;;;;;;;;;;10.50;99.90;;;;;;5070558;28;19935;-74
2022/04/30 09:37:53;;;;;;;;;;;10.70;99.90;;;;;;5064006;28;19978;-72
2022/04/30 09:40:24;;;;;;;;;;;10.90;99.90;;;;;;5046475;28;19925;-73
2022/04/30 09:42:56;;;;;;;;;;;11.00;99.90;;;;;;5035520;28;20311;-72
2022/04/30 09:45:32;;;;;;;;;;;11.10;99.90;;;;;;5052413;28;20291;-73
2022/04/30 09:53:56;;;;;;;;;;;11.10;99.90;;;;;;5053171;28;19931;-73
2022/04/30 09:54:00;;;;;;;;;;;11.30;99.90;;;;;;5072783;28;19928;-73
2022/04/30 09:56:36;;;;;;;;;;;11.30;99.90;;;;;;5051808;28;19924;-75
2022/04/30 09:59:12;;;;;;;;;;;11.40;99.90;;;;;;5053654;28;19925;-74
2022/04/30 10:01:44;;;;;;;;;;;11.50;99.90;;;;;;5041174;28;19950;-75
2022/04/30 10:04:17;;;;;;;;;;;11.60;99.90;;;;;;5050447;28;19931;-73
2022/04/30 10:06:49;;;;;;;;;;;11.60;99.90;;;;;;5031887;28;19925;-74
2022/04/30 10:09:24;;;;;;;;;;;11.70;99.90;;;;;;5038359;28;19925;-72
2022/04/30 10:12:00;;;;;;;;;;;11.80;99.90;;;;;;5038976;28;20312;-72
2022/04/30 10:14:50;;;;;;;;;;;12.00;99.90;;;;;;5019547;28;19925;-74
2022/04/30 10:17:26;;;;;;;;;;;12.10;99.90;;;;;;5053534;28;19924;-73
2022/04/30 10:20:01;;;;;;;;;;;12.30;99.90;;;;;;5053800;28;20320;-74
2022/04/30 10:22:32;;;;;;;;;;;12.20;99.90;;;;;;5037556;28;19932;-74
2022/04/30 10:25:04;;;;;;;;;;;12.30;99.90;;;;;;5032383;28;20015;-73
2022/04/30 10:27:38;;;;;;;;;;;12.50;99.90;;;;;;5049526;28;20308;-73
2022/04/30 10:30:20;;;;;;;;;;;12.50;99.90;;;;;;5048648;28;20396;-74
2022/04/30 10:32:59;;;;;;;;;;;12.50;99.90;;;;;;5049416;28;19932;-74
2022/04/30 10:35:33;;;;;;;;;;;12.60;99.90;;;;;;5047049;28;20351;-75
2022/04/30 10:38:21;;;;;;;;;;;12.60;99.90;;;;;;5015887;28;20019;-74
2022/04/30 10:40:56;;;;;;;;;;;12.60;99.90;;;;;;5013668;28;20579;-74
2022/04/30 10:43:34;;;;;;;;;;;12.60;99.90;;;;;;5052024;28;20036;-74
2022/04/30 10:46:20;;;;;;;;;;;12.60;99.90;;;;;;5040803;28;19928;-73
2022/04/30 10:48:52;;;;;;;;;;;12.60;99.90;;;;;;5051225;28;19931;-74
2022/04/30 10:51:35;;;;;;;;;;;12.50;99.90;;;;;;5034280;28;19947;-75
2022/04/30 10:54:07;;;;;;;;;;;12.40;99.90;;;;;;5042815;28;19925;-74
2022/04/30 10:56:39;;;;;;;;;;;12.30;99.90;;;;;;5038241;28;19936;-74
2022/04/30 10:59:20;;;;;;;;;;;12.20;99.90;;;;;;5011341;28;19932;-74
2022/04/30 11:01:50;;;;;;;;;;;12.30;99.90;;;;;;5030900;28;20407;-75
2022/04/30 11:04:17;;;;;;;;;;;12.30;99.90;;;;;;5032122;28;19924;-74
2022/04/30 11:06:53;;;;;;;;;;;12.30;99.90;;;;;;5042588;28;19925;-74
2022/04/30 11:09:24;;;;;;;;;;;12.30;99.90;;;;;;5027816;28;19931;-74
2022/04/30 11:11:51;;;;;;;;;;;12.30;99.90;;;;;;5030620;28;20301;-74
2022/04/30 11:14:23;;;;;;;;;;;12.40;99.90;;;;;;5031887;28;19925;-74
2022/04/30 11:16:55;;;;;;;;;;;12.50;99.90;;;;;;5035460;28;20397;-75
2022/04/30 11:19:27;;;;;;;;;;;12.60;99.90;;;;;;5035511;28;19956;-74
2022/04/30 11:21:59;;;;;;;;;;;12.60;99.90;;;;;;5042828;28;20489;-75
2022/04/30 11:24:31;;;;;;;;;;;12.70;99.90;;;;;;5033052;28;19925;-74
2022/04/30 11:26:59;;;;;;;;;;;12.60;99.90;;;;;;5030753;28;19939;-76
2022/04/30 11:29:32;;;;;;;;;;;12.70;99.90;;;;;;5045466;28;19925;-76
2022/04/30 11:31:59;;;;;;;;;;;12.80;99.90;;;;;;5047772;23;19929;-72
2022/04/30 11:34:31;;;;;;;;;;;12.90;99.90;;;;;;5030226;28;20336;-72
2022/04/30 11:36:58;;;;;;;;;;;12.90;99.90;;;;;;5031372;28;20059;-72
2022/04/30 11:39:30;;;;;;;;;;;12.90;99.90;;;;;;5036082;28;19963;-72
2022/04/30 11:42:02;;;;;;;;;;;12.90;99.90;;;;;;5028289;28;19991;-72
2022/04/30 11:44:34;;;;;;;;;;;12.80;99.90;;;;;;5027030;28;20336;-72
2022/04/30 11:47:06;;;;;;;;;;;12.80;99.90;;;;;;5021474;28;19925;-72
2022/04/30 11:49:38;;;;;;;;;;;12.70;99.90;;;;;;5017543;28;20037;-72
2022/04/30 11:52:10;;;;;;;;;;;12.70;99.90;;;;;;5022304;28;19929;-72
2022/04/30 11:54:41;;;;;;;;;;;12.70;99.90;;;;;;5023174;28;19931;-72
2022/04/30 11:57:08;;;;;;;;;;;12.80;99.90;;;;;;5029566;28;19948;-72
2022/04/30 11:59:40;;;;;;;;;;;12.80;99.90;;;;;;5028242;28;19936;-72
2022/04/30 12:02:14;;;;;;;;;;;12.70;99.90;;;;;;5027751;28;19968;-72
2022/04/30 12:04:47;;;;;;;;;;;12.70;99.90;;;;;;5028906;28;19929;-72
2022/04/30 12:07:14;;;;;;;;;;;12.60;99.90;;;;;;5017022;28;19935;-72
2022/04/30 12:09:50;;;;;;;;;;;12.60;99.90;;;;;;5028945;28;19925;-72
2022/04/30 12:12:18;;;;;;;;;;;12.60;99.90;;;;;;5035265;28;19932;-72
2022/04/30 12:14:50;;;;;;;;;;;12.70;99.90;;;;;;5030247;28;19929;-71
2022/04/30 12:17:32;;;;;;;;;;;12.70;99.90;;;;;;5035823;28;19959;-72
2022/04/30 12:26:14;;;;;;;;;;;12.80;99.90;;;;;;5032099;28;19964;-72
2022/04/30 12:28:45;;;;;;;;;;;12.80;99.90;;;;;;5024158;28;19925;-72
2022/04/30 12:31:18;;;;;;;;;;;12.80;99.90;;;;;;5018547;28;20285;-72
2022/04/30 12:33:50;;;;;;;;;;;12.90;99.90;;;;;;5025238;28;19925;-73
2022/04/30 12:36:17;;;;;;;;;;;12.90;99.90;;;;;;5030097;28;19925;-74
2022/04/30 12:38:55;;;;;;;;;;;13.00;99.90;;;;;;5020273;28;19935;-74
2022/04/30 12:41:23;;;;;;;;;;;13.00;99.90;;;;;;5022531;28;20296;-74
2022/04/30 12:43:56;;;;;;;;;;;12.90;99.90;;;;;;5024830;28;19937;-74
2022/04/30 12:46:28;;;;;;;;;;;12.70;99.90;;;;;;5027520;28;19937;-74
2022/04/30 12:49:00;;;;;;;;;;;12.70;99.90;;;;;;5035935;28;19925;-74
2022/04/30 12:51:32;;;;;;;;;;;12.70;99.90;;;;;;5015340;28;19932;-74
2022/04/30 12:54:04;;;;;;;;;;;12.70;99.90;;;;;;5030444;28;19984;-73
2022/04/30 12:56:36;;;;;;;;;;;12.70;99.90;;;;;;5032113;28;20217;-73
2022/04/30 12:59:08;;;;;;;;;;;12.80;99.90;;;;;;5014389;28;19925;-73
2022/04/30 13:01:40;;;;;;;;;;;12.80;99.90;;;;;;5029702;28;19971;-73
2022/04/30 13:04:12;;;;;;;;;;;12.90;99.90;;;;;;5027380;28;19975;-75
2022/04/30 13:06:44;;;;;;;;;;;12.90;99.90;;;;;;5031893;28;19929;-73
2022/04/30 13:14:51;;;;;;;;;;;13.00;99.90;;;;;;5037419;28;19928;-73
2022/04/30 13:17:22;;;;;;;;;;;12.90;99.90;;;;;;5016349;28;19936;-74
2022/04/30 13:19:54;;;;;;;;;;;13.00;99.90;;;;;;5027680;28;20290;-74
2022/04/30 13:22:26;;;;;;;;;;;13.10;99.90;;;;;;5032625;28;19929;-73
2022/04/30 13:24:57;;;;;;;;;;;13.10;99.90;;;;;;5036816;28;19951;-77
2022/04/30 13:27:31;;;;;;;;;;;13.10;99.90;;;;;;5020376;28;19925;-74
2022/04/30 13:30:02;;;;;;;;;;;13.10;99.90;;;;;;5028652;28;20422;-74
2022/04/30 13:32:34;;;;;;;;;;;13.10;99.90;;;;;;5028602;28;20350;-74
2022/04/30 13:35:06;;;;;;;;;;;13.10;99.90;;;;;;5032583;28;19926;-74
2022/04/30 13:37:40;;;;;;;;;;;13.10;99.90;;;;;;5027244;28;19936;-74
2022/04/30 13:40:12;;;;;;;;;;;13.10;99.90;;;;;;5030976;28;19932;-75
2022/04/30 13:42:44;;;;;;;;;;;13.10;99.90;;;;;;5026584;28;20588;-76
2022/04/30 13:45:16;;;;;;;;;;;13.10;99.90;;;;;;5029122;28;19925;-74
2022/04/30 13:47:50;;;;;;;;;;;13.10;99.90;;;;;;5020637;28;20296;-74
2022/04/30 13:50:22;;;;;;;;;;;13.10;99.90;;;;;;5023209;28;19925;-73
2022/04/30 13:52:49;;;;;;;;;;;13.10;99.90;;;;;;5025989;28;19955;-74
2022/04/30 13:55:20;;;;;;;;;;;13.20;99.90;;;;;;5029422;28;19936;-74
2022/04/30 13:57:53;;;;;;;;;;;13.20;99.90;;;;;;5022126;28;19925;-77
2022/04/30 14:00:25;;;;;;;;;;;13.10;99.90;;;;;;5021099;28;20024;-77
2022/04/30 14:02:51;;;;;;;;;;;13.10;99.90;;;;;;5022656;28;19983;-74
2022/04/30 14:05:23;;;;;;;;;;;13.00;99.90;;;;;;5027591;28;20059;-75
2022/04/30 14:07:55;;;;;;;;;;;13.00;99.90;;;;;;5005321;28;19925;-73
2022/04/30 14:10:29;;;;;;;;;;;12.90;99.90;;;;;;5020092;28;20027;-73
2022/04/30 14:15:46;;;;;;;;;;;13.00;99.90;;;;;;5042131;28;20012;-74
2022/04/30 14:18:16;;;;;;;;;;;13.00;99.90;;;;;;5039268;28;19932;-73
2022/04/30 14:20:46;;;;;;;;;;;13.00;99.90;;;;;;5024139;28;19925;-73
2022/04/30 14:23:12;;;;;;;;;;;13.00;99.90;;;;;;5028055;28;19963;-73
2022/04/30 14:25:44;;;;;;;;;;;13.00;99.90;;;;;;5022392;28;19926;-74
2022/04/30 14:28:19;;;;;;;;;;;12.90;99.90;;;;;;5027856;28;20297;-73
2022/04/30 14:30:51;;;;;;;;;;;13.00;99.90;;;;;;5020763;28;19924;-73
2022/04/30 14:33:22;;;;;;;;;;;12.90;99.90;;;;;;5018003;28;19929;-73
2022/04/30 14:35:54;;;;;;;;;;;12.90;99.90;;;;;;5021221;28;20396;-73
2022/04/30 14:38:21;;;;;;;;;;;12.90;99.90;;;;;;5024429;28;19929;-74
2022/04/30 14:40:53;;;;;;;;;;;12.90;99.90;;;;;;5030743;28;19925;-73
2022/04/30 14:43:25;;;;;;;;;;;12.80;99.90;;;;;;5023340;28;20300;-73
2022/04/30 14:45:57;;;;;;;;;;;12.80;99.90;;;;;;5027266;28;19933;-73
2022/04/30 14:48:29;;;;;;;;;;;12.80;99.90;;;;;;5017256;28;19936;-72
2022/04/30 14:51:01;;;;;;;;;;;12.80;99.90;;;;;;5019669;28;19932;-74
2022/04/30 14:53:33;;;;;;;;;;;12.70;99.90;;;;;;5026387;28;19961;-73
2022/04/30 14:56:04;;;;;;;;;;;12.80;99.90;;;;;;5022165;28;19929;-73
2022/04/30 14:58:39;;;;;;;;;;;12.90;99.90;;;;;;5021596;28;19925;-73
2022/04/30 15:01:10;;;;;;;;;;;13.00;99.90;;;;;;5025967;28;19925;-75
2022/04/30 15:03:45;;;;;;;;;;;13.00;99.90;;;;;;5008072;28;20690;-72
2022/04/30 15:06:16;;;;;;;;;;;13.00;99.90;;;;;;5014333;28;19926;-73
2022/04/30 15:08:48;;;;;;;;;;;13.00;99.90;;;;;;5031286;28;19967;-74
2022/04/30 15:11:20;;;;;;;;;;;13.00;99.90;;;;;;5017089;28;19929;-75
2022/04/30 15:13:46;;;;;;;;;;;13.00;99.90;;;;;;5018035;28;19926;-74
2022/04/30 15:16:18;;;;;;;;;;;13.10;99.90;;;;;;5019385;28;19929;-75
2022/04/30 15:18:49;;;;;;;;;;;13.10;99.90;;;;;;5023727;28;19929;-75
2022/04/30 15:21:21;;;;;;;;;;;13.00;99.90;;;;;;5014088;28;19935;-74
2022/04/30 15:23:53;;;;;;;;;;;12.90;99.90;;;;;;5021077;28;19932;-74
2022/04/30 15:26:24;;;;;;;;;;;12.70;99.90;;;;;;5028058;28;19929;-77
2022/04/30 15:28:56;;;;;;;;;;;12.70;99.90;;;;;;5020013;28;20376;-74
2022/04/30 15:31:23;;;;;;;;;;;12.60;99.90;;;;;;5026175;28;20015;-76
2022/04/30 15:33:55;;;;;;;;;;;12.60;99.90;;;;;;5023590;28;19925;-74
2022/04/30 15:36:26;;;;;;;;;;;12.50;99.90;;;;;;5025471;28;19925;-73